Terminal Aerodrome Forecast
Issued by NWS

Home | Current Version | Previous Version | Text Only | Print | Product List | Glossary On
Versions: 1 2 3 4 5 6 7 8 9 10 11 12 13 14 15 16 17 18 19 20 21 22 23 24 25 26 27
000
FTUS41 KRLX 300500
TAFCKB
TAF
KCKB 300538Z 3006/3106 00000KT P6SM SKC
     FM301000 00000KT 6SM BR BKN060
     FM301400 VRB03KT P6SM BKN080
     FM301700 22005KT P6SM SCT050
     FM310100 VRB03KT P6SM BKN045=

USA.gov is the U.S. government's official web portal to all federal, state and local government web resources and services.